Airfield :
LOGIN :

Register | Disclaimer

   EN    FR    IT 

 










Legend :    VFR   Marginal VFR   IFR   Intensive IFR   Very Intensive IFR
Visi :
Ceiling :
>= 8 km
>= 3000ft
5 to 8 km
1000 to 3000 ft
1500m to 5 km
500 to 1000 ft
800 to 1500m
200 to 500 ft
< 800m
< 200 ft
Symbols :   Thunderstorms  Fog  Heavy snow  Heavy precipitations  Wind > 20 kt
SIGMETs :     Misc.  Thunderstorms  Icing  Turbulence  Mountain Waves  Volcanic Ashes






- Airport Elevation : 17 ft
- IATA code : RHO


LGRP - Diagoras

CURRENT METAR :
  • 201650Z VRB03KT 9999 FEW018 17/15 Q1019 NOSIG

EXPIRED METARs :
  • 201620Z VRB03KT 9999 FEW018 18/15 Q1019 NOSIG
  • 201550Z VRB03KT 9999 FEW018 18/14 Q1019 NOSIG
  • 201520Z 18004KT 9999 FEW018 19/15 Q1019 NOSIG
  • 201450Z VRB03KT 9999 FEW018 19/16 Q1019 NOSIG
  • 201420Z VRB03KT 9999 FEW018 21/15 Q1019 NOSIG

TAF TAF LGRP
Valid from the 20 at 12:00 until the 21 at 12:00 UTC


201100Z 2012/2112 VRB05KT 9999 FEW015
BECMG 2017/2019 20010KT



MET'MAP, your aeronautical weather chart ! - Copyright ORBIFLY December 2007 - Disclaimer

ORBIFLY MET'MAP TEAM :

Programming & Development : Alexandra Zaïnal
Concept & Development : Baudouin d'Aumeries
Co-Development & Prog : Marc-Olivier Méhu
Technical & hardware support : Manuel Goepfert

Contact : metmap@orbifly.com




SOURCES & CREDITS :

   NOAA